sensor_id;sensor_type;location;lat;lon;timestamp;pressure;altitude;pressure_sealevel;temperature;humidity
73516;BME280;61763;51.416;5.442;2023-08-31T00:01:11;100791.28;;;10.45;100.00
73516;BME280;61763;51.416;5.442;2023-08-31T00:03:39;100789.84;;;10.38;100.00
73516;BME280;61763;51.416;5.442;2023-08-31T00:06:04;100788.13;;;10.37;100.00
73516;BME280;61763;51.416;5.442;2023-08-31T00:08:34;100786.06;;;10.23;100.00
73516;BME280;61763;51.416;5.442;2023-08-31T00:11:00;100787.97;;;10.21;100.00
73516;BME280;61763;51.416;5.442;2023-08-31T00:13:26;100782.81;;;10.16;100.00
73516;BME280;61763;51.416;5.442;2023-08-31T00:15:56;100793.75;;;10.13;100.00
73516;BME280;61763;51.416;5.442;2023-08-31T00:18:25;100792.94;;;10.11;100.00
73516;BME280;61763;51.416;5.442;2023-08-31T00:20:51;100787.56;;;10.11;100.00
73516;BME280;61763;51.416;5.442;2023-08-31T00:23:16;100802.28;;;10.04;100.00
73516;BME280;61763;51.416;5.442;2023-08-31T00:25:41;100795.94;;;10.05;100.00
73516;BME280;61763;51.416;5.442;2023-08-31T00:28:09;100791.66;;;10.00;100.00
73516;BME280;61763;51.416;5.442;2023-08-31T00:30:34;100793.31;;;10.03;100.00
73516;BME280;61763;51.416;5.442;2023-08-31T00:33:00;100795.16;;;10.03;100.00
73516;BME280;61763;51.416;5.442;2023-08-31T00:35:26;100799.97;;;9.96;100.00
73516;BME280;61763;51.416;5.442;2023-08-31T00:37:55;100793.88;;;9.92;100.00
73516;BME280;61763;51.416;5.442;2023-08-31T00:40:41;100786.56;;;9.94;100.00
73516;BME280;61763;51.416;5.442;2023-08-31T00:43:09;100789.50;;;9.90;100.00
73516;BME280;61763;51.416;5.442;2023-08-31T00:45:36;100789.03;;;9.80;100.00
73516;BME280;61763;51.416;5.442;2023-08-31T00:48:03;100792.47;;;9.84;100.00
73516;BME280;61763;51.416;5.442;2023-08-31T00:50:28;100797.56;;;9.90;100.00
73516;BME280;61763;51.416;5.442;2023-08-31T00:52:54;100789.63;;;9.87;100.00
73516;BME280;61763;51.416;5.442;2023-08-31T00:55:20;100788.97;;;9.81;100.00
73516;BME280;61763;51.416;5.442;2023-08-31T00:57:46;100790.50;;;9.87;100.00
73516;BME280;61763;51.416;5.442;2023-08-31T01:00:12;100790.94;;;9.78;100.00
73516;BME280;61763;51.416;5.442;2023-08-31T01:10:39;100789.66;;;9.68;100.00
73516;BME280;61763;51.416;5.442;2023-08-31T01:13:14;100784.81;;;9.74;100.00
73516;BME280;61763;51.416;5.442;2023-08-31T01:15:51;100786.34;;;9.80;100.00
73516;BME280;61763;51.416;5.442;2023-08-31T01:18:22;100775.09;;;9.72;100.00
73516;BME280;61763;51.416;5.442;2023-08-31T01:21:12;100783.44;;;9.65;100.00
73516;BME280;61763;51.416;5.442;2023-08-31T01:26:13;100778.72;;;9.52;100.00
73516;BME280;61763;51.416;5.442;2023-08-31T01:28:39;100781.94;;;9.60;100.00
73516;BME280;61763;51.416;5.442;2023-08-31T01:31:05;100782.41;;;9.49;100.00
73516;BME280;61763;51.416;5.442;2023-08-31T01:33:31;100783.25;;;9.51;100.00
73516;BME280;61763;51.416;5.442;2023-08-31T01:35:58;100786.50;;;9.58;100.00
73516;BME280;61763;51.416;5.442;2023-08-31T01:38:28;100783.94;;;9.55;100.00
73516;BME280;61763;51.416;5.442;2023-08-31T01:41:02;100786.50;;;9.58;100.00
73516;BME280;61763;51.416;5.442;2023-08-31T01:43:31;100787.31;;;9.60;100.00
73516;BME280;61763;51.416;5.442;2023-08-31T01:45:57;100800.84;;;9.58;100.00
73516;BME280;61763;51.416;5.442;2023-08-31T01:48:23;100799.81;;;9.61;100.00
73516;BME280;61763;51.416;5.442;2023-08-31T01:50:49;100804.19;;;9.63;100.00
73516;BME280;61763;51.416;5.442;2023-08-31T01:53:14;100794.59;;;9.58;100.00
73516;BME280;61763;51.416;5.442;2023-08-31T01:55:39;100789.03;;;9.61;100.00
73516;BME280;61763;51.416;5.442;2023-08-31T01:58:05;100790.34;;;9.52;100.00
73516;BME280;61763;51.416;5.442;2023-08-31T02:00:30;100789.34;;;9.55;100.00
73516;BME280;61763;51.416;5.442;2023-08-31T02:03:00;100792.97;;;9.54;100.00
73516;BME280;61763;51.416;5.442;2023-08-31T02:05:25;100800.13;;;9.55;100.00
73516;BME280;61763;51.416;5.442;2023-08-31T02:07:50;100795.03;;;9.49;100.00
73516;BME280;61763;51.416;5.442;2023-08-31T02:10:16;100801.28;;;9.49;100.00
73516;BME280;61763;51.416;5.442;2023-08-31T02:12:41;100801.50;;;9.44;100.00
73516;BME280;61763;51.416;5.442;2023-08-31T02:15:07;100801.34;;;9.47;100.00
73516;BME280;61763;51.416;5.442;2023-08-31T02:17:34;100803.75;;;9.54;100.00
73516;BME280;61763;51.416;5.442;2023-08-31T02:20:01;100807.13;;;9.59;100.00
73516;BME280;61763;51.416;5.442;2023-08-31T02:22:33;100813.16;;;9.64;100.00
73516;BME280;61763;51.416;5.442;2023-08-31T02:24:58;100804.81;;;9.70;100.00
73516;BME280;61763;51.416;5.442;2023-08-31T02:27:23;100812.88;;;9.70;100.00
73516;BME280;61763;51.416;5.442;2023-08-31T02:29:49;100818.91;;;9.75;100.00
73516;BME280;61763;51.416;5.442;2023-08-31T02:32:14;100815.13;;;9.79;100.00
73516;BME280;61763;51.416;5.442;2023-08-31T02:34:40;100811.44;;;9.82;100.00
73516;BME280;61763;51.416;5.442;2023-08-31T02:37:05;100804.28;;;9.81;100.00
73516;BME280;61763;51.416;5.442;2023-08-31T02:39:30;100802.59;;;9.78;100.00
73516;BME280;61763;51.416;5.442;2023-08-31T02:41:56;100810.84;;;9.75;100.00
73516;BME280;61763;51.416;5.442;2023-08-31T02:44:21;100813.22;;;9.81;100.00
73516;BME280;61763;51.416;5.442;2023-08-31T02:46:46;100811.53;;;9.79;100.00
73516;BME280;61763;51.416;5.442;2023-08-31T02:49:12;100807.84;;;9.81;100.00
73516;BME280;61763;51.416;5.442;2023-08-31T02:51:38;100806.53;;;9.71;100.00
73516;BME280;61763;51.416;5.442;2023-08-31T02:54:04;100802.03;;;9.72;100.00
73516;BME280;61763;51.416;5.442;2023-08-31T02:56:30;100801.72;;;9.59;100.00
73516;BME280;61763;51.416;5.442;2023-08-31T02:58:56;100803.91;;;9.51;100.00
73516;BME280;61763;51.416;5.442;2023-08-31T03:01:21;100806.44;;;9.54;100.00
73516;BME280;61763;51.416;5.442;2023-08-31T03:03:47;100806.72;;;9.47;100.00
73516;BME280;61763;51.416;5.442;2023-08-31T03:06:13;100806.28;;;9.57;100.00
73516;BME280;61763;51.416;5.442;2023-08-31T03:08:38;100804.78;;;9.51;100.00
73516;BME280;61763;51.416;5.442;2023-08-31T03:11:05;100807.66;;;9.46;100.00
73516;BME280;61763;51.416;5.442;2023-08-31T03:13:31;100804.97;;;9.46;100.00
73516;BME280;61763;51.416;5.442;2023-08-31T03:15:57;100812.03;;;9.49;100.00
73516;BME280;61763;51.416;5.442;2023-08-31T03:18:24;100814.97;;;9.44;100.00
73516;BME280;61763;51.416;5.442;2023-08-31T03:20:49;100813.41;;;9.39;100.00
73516;BME280;61763;51.416;5.442;2023-08-31T03:23:14;100817.03;;;9.38;100.00
73516;BME280;61763;51.416;5.442;2023-08-31T03:25:40;100821.22;;;9.45;100.00
73516;BME280;61763;51.416;5.442;2023-08-31T03:28:05;100820.19;;;9.47;100.00
73516;BME280;61763;51.416;5.442;2023-08-31T03:30:31;100820.41;;;9.43;100.00
73516;BME280;61763;51.416;5.442;2023-08-31T03:32:56;100806.00;;;9.44;100.00
73516;BME280;61763;51.416;5.442;2023-08-31T03:35:22;100814.09;;;9.44;100.00
73516;BME280;61763;51.416;5.442;2023-08-31T03:37:56;100808.84;;;9.41;100.00
73516;BME280;61763;51.416;5.442;2023-08-31T03:40:22;100810.81;;;9.56;100.00
73516;BME280;61763;51.416;5.442;2023-08-31T03:42:50;100809.88;;;9.57;100.00
73516;BME280;61763;51.416;5.442;2023-08-31T03:45:15;100812.78;;;9.53;100.00
73516;BME280;61763;51.416;5.442;2023-08-31T03:47:41;100806.59;;;9.51;100.00
73516;BME280;61763;51.416;5.442;2023-08-31T03:50:07;100808.19;;;9.55;100.00
73516;BME280;61763;51.416;5.442;2023-08-31T03:52:33;100802.81;;;9.55;100.00
73516;BME280;61763;51.416;5.442;2023-08-31T03:54:58;100807.25;;;9.56;100.00
73516;BME280;61763;51.416;5.442;2023-08-31T03:57:24;100805.66;;;9.52;100.00
73516;BME280;61763;51.416;5.442;2023-08-31T03:59:50;100800.78;;;9.41;100.00
73516;BME280;61763;51.416;5.442;2023-08-31T04:02:25;100799.81;;;9.42;100.00
73516;BME280;61763;51.416;5.442;2023-08-31T04:04:50;100802.28;;;9.46;100.00
73516;BME280;61763;51.416;5.442;2023-08-31T04:07:16;100809.13;;;9.54;100.00
73516;BME280;61763;51.416;5.442;2023-08-31T04:09:41;100809.06;;;9.55;100.00
73516;BME280;61763;51.416;5.442;2023-08-31T04:12:07;100816.13;;;9.58;100.00
73516;BME280;61763;51.416;5.442;2023-08-31T04:14:32;100815.63;;;9.50;100.00
73516;BME280;61763;51.416;5.442;2023-08-31T04:16:57;100822.59;;;9.54;100.00
73516;BME280;61763;51.416;5.442;2023-08-31T04:19:23;100825.59;;;9.47;100.00
73516;BME280;61763;51.416;5.442;2023-08-31T04:21:49;100832.75;;;9.49;100.00
73516;BME280;61763;51.416;5.442;2023-08-31T04:24:14;100825.72;;;9.44;100.00
73516;BME280;61763;51.416;5.442;2023-08-31T04:26:40;100824.44;;;9.53;100.00
73516;BME280;61763;51.416;5.442;2023-08-31T04:29:05;100830.44;;;9.60;100.00
73516;BME280;61763;51.416;5.442;2023-08-31T04:31:33;100818.44;;;9.46;100.00
73516;BME280;61763;51.416;5.442;2023-08-31T04:33:59;100832.75;;;9.49;100.00
73516;BME280;61763;51.416;5.442;2023-08-31T04:36:24;100838.34;;;9.44;100.00
73516;BME280;61763;51.416;5.442;2023-08-31T04:38:54;100840.97;;;9.45;100.00
73516;BME280;61763;51.416;5.442;2023-08-31T04:41:20;100839.34;;;9.41;100.00
73516;BME280;61763;51.416;5.442;2023-08-31T04:43:45;100837.03;;;9.53;100.00
73516;BME280;61763;51.416;5.442;2023-08-31T04:46:14;100831.28;;;9.60;100.00
73516;BME280;61763;51.416;5.442;2023-08-31T04:48:40;100842.78;;;9.64;100.00
73516;BME280;61763;51.416;5.442;2023-08-31T04:51:05;100848.47;;;9.58;100.00
73516;BME280;61763;51.416;5.442;2023-08-31T04:53:31;100842.94;;;9.61;100.00
73516;BME280;61763;51.416;5.442;2023-08-31T04:55:56;100839.31;;;9.62;100.00
73516;BME280;61763;51.416;5.442;2023-08-31T04:58:22;100841.13;;;9.61;100.00
73516;BME280;61763;51.416;5.442;2023-08-31T05:00:47;100839.88;;;9.69;100.00
73516;BME280;61763;51.416;5.442;2023-08-31T05:03:13;100846.88;;;9.73;100.00
73516;BME280;61763;51.416;5.442;2023-08-31T05:05:40;100841.69;;;9.68;100.00
73516;BME280;61763;51.416;5.442;2023-08-31T05:08:07;100862.69;;;9.61;100.00
73516;BME280;61763;51.416;5.442;2023-08-31T05:10:35;100859.72;;;9.68;100.00
73516;BME280;61763;51.416;5.442;2023-08-31T05:13:01;100868.06;;;9.61;100.00
73516;BME280;61763;51.416;5.442;2023-08-31T05:15:26;100867.31;;;9.58;100.00
73516;BME280;61763;51.416;5.442;2023-08-31T05:17:55;100868.97;;;9.81;100.00
73516;BME280;61763;51.416;5.442;2023-08-31T05:20:21;100869.91;;;9.80;100.00
73516;BME280;61763;51.416;5.442;2023-08-31T05:22:48;100870.50;;;9.87;100.00
73516;BME280;61763;51.416;5.442;2023-08-31T05:25:14;100874.00;;;9.89;100.00
73516;BME280;61763;51.416;5.442;2023-08-31T05:27:39;100876.47;;;9.93;100.00
73516;BME280;61763;51.416;5.442;2023-08-31T05:30:05;100888.78;;;9.99;100.00
73516;BME280;61763;51.416;5.442;2023-08-31T05:32:31;100885.94;;;10.02;100.00
73516;BME280;61763;51.416;5.442;2023-08-31T05:34:58;100894.03;;;10.02;100.00
73516;BME280;61763;51.416;5.442;2023-08-31T05:37:24;100893.66;;;10.10;100.00
73516;BME280;61763;51.416;5.442;2023-08-31T05:39:50;100883.38;;;10.18;100.00
73516;BME280;61763;51.416;5.442;2023-08-31T05:42:16;100889.50;;;10.22;100.00
73516;BME280;61763;51.416;5.442;2023-08-31T05:44:41;100893.94;;;10.23;100.00
73516;BME280;61763;51.416;5.442;2023-08-31T05:47:07;100891.09;;;10.26;100.00
73516;BME280;61763;51.416;5.442;2023-08-31T05:49:32;100889.22;;;10.28;100.00
73516;BME280;61763;51.416;5.442;2023-08-31T05:51:58;100893.47;;;10.33;100.00
73516;BME280;61763;51.416;5.442;2023-08-31T05:54:23;100896.75;;;10.40;100.00
73516;BME280;61763;51.416;5.442;2023-08-31T05:56:49;100896.19;;;10.51;100.00
73516;BME280;61763;51.416;5.442;2023-08-31T05:59:14;100902.34;;;10.55;100.00
73516;BME280;61763;51.416;5.442;2023-08-31T06:01:39;100899.34;;;10.61;100.00
73516;BME280;61763;51.416;5.442;2023-08-31T06:04:05;100901.97;;;10.62;100.00
73516;BME280;61763;51.416;5.442;2023-08-31T06:06:31;100893.19;;;10.76;100.00
73516;BME280;61763;51.416;5.442;2023-08-31T06:08:57;100906.44;;;10.81;100.00
73516;BME280;61763;51.416;5.442;2023-08-31T06:11:23;100900.41;;;10.93;100.00
73516;BME280;61763;51.416;5.442;2023-08-31T06:13:48;100905.75;;;11.12;100.00
73516;BME280;61763;51.416;5.442;2023-08-31T06:16:14;100902.72;;;11.18;100.00
73516;BME280;61763;51.416;5.442;2023-08-31T06:18:39;100910.75;;;11.20;100.00
73516;BME280;61763;51.416;5.442;2023-08-31T06:21:05;100907.50;;;11.31;100.00
73516;BME280;61763;51.416;5.442;2023-08-31T06:23:30;100912.31;;;11.42;100.00
73516;BME280;61763;51.416;5.442;2023-08-31T06:25:55;100919.06;;;11.50;100.00
73516;BME280;61763;51.416;5.442;2023-08-31T06:28:21;100924.06;;;11.58;100.00
73516;BME280;61763;51.416;5.442;2023-08-31T06:30:46;100915.63;;;11.64;100.00
73516;BME280;61763;51.416;5.442;2023-08-31T06:33:13;100914.00;;;11.78;100.00
73516;BME280;61763;51.416;5.442;2023-08-31T06:35:39;100911.84;;;11.84;100.00
73516;BME280;61763;51.416;5.442;2023-08-31T06:38:05;100910.34;;;11.96;100.00
73516;BME280;61763;51.416;5.442;2023-08-31T06:40:30;100908.69;;;12.09;100.00
73516;BME280;61763;51.416;5.442;2023-08-31T06:42:56;100909.16;;;12.18;100.00
73516;BME280;61763;51.416;5.442;2023-08-31T06:45:21;100911.88;;;12.34;100.00
73516;BME280;61763;51.416;5.442;2023-08-31T06:47:47;100905.91;;;12.43;100.00
73516;BME280;61763;51.416;5.442;2023-08-31T06:50:12;100904.63;;;12.50;100.00
73516;BME280;61763;51.416;5.442;2023-08-31T06:52:37;100915.75;;;12.60;100.00
73516;BME280;61763;51.416;5.442;2023-08-31T06:55:03;100916.97;;;12.70;100.00
73516;BME280;61763;51.416;5.442;2023-08-31T06:57:28;100917.13;;;12.83;100.00
73516;BME280;61763;51.416;5.442;2023-08-31T06:59:54;100924.03;;;12.89;100.00
73516;BME280;61763;51.416;5.442;2023-08-31T07:02:19;100916.16;;;13.00;100.00
73516;BME280;61763;51.416;5.442;2023-08-31T07:04:47;100917.34;;;13.10;100.00
73516;BME280;61763;51.416;5.442;2023-08-31T07:07:13;100931.50;;;13.15;100.00
73516;BME280;61763;51.416;5.442;2023-08-31T07:09:42;100925.16;;;13.31;100.00
73516;BME280;61763;51.416;5.442;2023-08-31T07:12:08;100933.19;;;13.32;100.00
73516;BME280;61763;51.416;5.442;2023-08-31T07:14:33;100928.81;;;13.46;100.00
73516;BME280;61763;51.416;5.442;2023-08-31T07:16:59;100930.84;;;13.57;100.00
73516;BME280;61763;51.416;5.442;2023-08-31T07:19:24;100931.25;;;13.65;100.00
73516;BME280;61763;51.416;5.442;2023-08-31T07:21:50;100930.56;;;13.76;100.00
73516;BME280;61763;51.416;5.442;2023-08-31T07:24:15;100940.06;;;13.83;100.00
73516;BME280;61763;51.416;5.442;2023-08-31T07:26:40;100930.59;;;14.05;100.00
73516;BME280;61763;51.416;5.442;2023-08-31T07:29:06;100932.72;;;14.14;100.00
73516;BME280;61763;51.416;5.442;2023-08-31T07:31:31;100933.66;;;14.27;100.00
73516;BME280;61763;51.416;5.442;2023-08-31T07:33:57;100935.22;;;14.31;100.00
73516;BME280;61763;51.416;5.442;2023-08-31T07:36:24;100932.09;;;14.37;100.00
73516;BME280;61763;51.416;5.442;2023-08-31T07:38:49;100941.28;;;14.49;100.00
73516;BME280;61763;51.416;5.442;2023-08-31T07:41:15;100933.03;;;14.51;100.00
73516;BME280;61763;51.416;5.442;2023-08-31T07:43:40;100934.00;;;14.64;100.00
73516;BME280;61763;51.416;5.442;2023-08-31T07:46:05;100929.50;;;14.78;100.00
73516;BME280;61763;51.416;5.442;2023-08-31T07:48:31;100936.25;;;14.85;100.00
73516;BME280;61763;51.416;5.442;2023-08-31T07:50:56;100930.09;;;14.96;100.00
73516;BME280;61763;51.416;5.442;2023-08-31T07:53:22;100923.22;;;15.17;100.00
73516;BME280;61763;51.416;5.442;2023-08-31T07:55:54;100934.44;;;15.26;100.00
73516;BME280;61763;51.416;5.442;2023-08-31T07:58:20;100933.06;;;15.33;100.00
73516;BME280;61763;51.416;5.442;2023-08-31T08:00:46;100930.66;;;15.41;100.00
73516;BME280;61763;51.416;5.442;2023-08-31T08:03:11;100940.91;;;15.63;100.00
73516;BME280;61763;51.416;5.442;2023-08-31T08:05:39;100940.56;;;15.68;100.00
73516;BME280;61763;51.416;5.442;2023-08-31T08:08:05;100939.66;;;15.94;100.00
73516;BME280;61763;51.416;5.442;2023-08-31T08:10:30;100940.06;;;16.14;100.00
73516;BME280;61763;51.416;5.442;2023-08-31T08:12:56;100942.66;;;16.28;100.00
73516;BME280;61763;51.416;5.442;2023-08-31T08:15:21;100942.50;;;16.43;100.00
73516;BME280;61763;51.416;5.442;2023-08-31T08:17:46;100934.72;;;16.62;100.00
73516;BME280;61763;51.416;5.442;2023-08-31T08:20:13;100943.16;;;16.71;100.00
73516;BME280;61763;51.416;5.442;2023-08-31T08:22:38;100940.00;;;16.77;100.00
73516;BME280;61763;51.416;5.442;2023-08-31T08:25:04;100946.19;;;16.92;100.00
73516;BME280;61763;51.416;5.442;2023-08-31T08:27:31;100951.56;;;17.29;100.00
73516;BME280;61763;51.416;5.442;2023-08-31T08:29:58;100946.69;;;17.57;100.00
73516;BME280;61763;51.416;5.442;2023-08-31T08:32:23;100947.25;;;17.84;100.00
73516;BME280;61763;51.416;5.442;2023-08-31T08:34:50;100948.06;;;17.74;100.00
73516;BME280;61763;51.416;5.442;2023-08-31T08:37:15;100950.59;;;17.88;100.00
73516;BME280;61763;51.416;5.442;2023-08-31T08:39:40;100955.38;;;18.20;100.00
73516;BME280;61763;51.416;5.442;2023-08-31T08:42:06;100952.63;;;18.09;100.00
73516;BME280;61763;51.416;5.442;2023-08-31T08:44:38;100966.88;;;18.12;100.00
73516;BME280;61763;51.416;5.442;2023-08-31T08:47:06;100972.25;;;18.02;100.00
73516;BME280;61763;51.416;5.442;2023-08-31T08:49:33;100965.66;;;18.39;100.00
73516;BME280;61763;51.416;5.442;2023-08-31T08:52:00;100967.75;;;18.58;100.00
73516;BME280;61763;51.416;5.442;2023-08-31T08:54:27;100962.63;;;18.65;100.00
73516;BME280;61763;51.416;5.442;2023-08-31T08:56:52;100971.31;;;18.81;100.00
73516;BME280;61763;51.416;5.442;2023-08-31T08:59:18;100972.56;;;18.88;100.00
73516;BME280;61763;51.416;5.442;2023-08-31T09:01:44;100970.78;;;19.10;100.00
73516;BME280;61763;51.416;5.442;2023-08-31T09:04:12;100970.28;;;19.37;100.00
73516;BME280;61763;51.416;5.442;2023-08-31T09:06:38;100975.63;;;19.06;100.00
73516;BME280;61763;51.416;5.442;2023-08-31T09:09:03;100975.69;;;19.28;100.00
73516;BME280;61763;51.416;5.442;2023-08-31T09:11:29;100974.47;;;19.20;100.00
73516;BME280;61763;51.416;5.442;2023-08-31T09:13:56;100970.66;;;19.33;100.00
73516;BME280;61763;51.416;5.442;2023-08-31T09:16:29;100973.53;;;19.31;100.00
73516;BME280;61763;51.416;5.442;2023-08-31T09:18:56;100979.41;;;19.26;100.00
73516;BME280;61763;51.416;5.442;2023-08-31T09:21:22;100980.34;;;19.04;100.00
73516;BME280;61763;51.416;5.442;2023-08-31T09:23:56;100978.78;;;18.90;100.00
73516;BME280;61763;51.416;5.442;2023-08-31T09:26:24;100974.16;;;19.35;100.00
73516;BME280;61763;51.416;5.442;2023-08-31T09:28:50;100976.88;;;19.88;100.00
73516;BME280;61763;51.416;5.442;2023-08-31T09:31:16;100967.56;;;20.01;100.00
73516;BME280;61763;51.416;5.442;2023-08-31T09:33:50;100973.25;;;20.09;100.00
73516;BME280;61763;51.416;5.442;2023-08-31T09:36:16;100975.13;;;20.39;100.00
73516;BME280;61763;51.416;5.442;2023-08-31T09:38:42;100984.84;;;19.59;100.00
73516;BME280;61763;51.416;5.442;2023-08-31T09:41:10;100982.91;;;19.50;100.00
73516;BME280;61763;51.416;5.442;2023-08-31T09:43:36;100984.44;;;19.64;100.00
73516;BME280;61763;51.416;5.442;2023-08-31T09:46:03;100982.72;;;19.63;100.00
73516;BME280;61763;51.416;5.442;2023-08-31T09:48:30;100976.84;;;19.67;100.00
73516;BME280;61763;51.416;5.442;2023-08-31T09:50:56;100988.22;;;20.05;100.00
73516;BME280;61763;51.416;5.442;2023-08-31T09:53:24;100974.19;;;20.60;100.00
73516;BME280;61763;51.416;5.442;2023-08-31T09:55:51;100978.94;;;21.08;100.00
73516;BME280;61763;51.416;5.442;2023-08-31T09:58:21;100979.66;;;21.49;100.00
73516;BME280;61763;51.416;5.442;2023-08-31T10:00:49;100990.94;;;21.46;100.00
73516;BME280;61763;51.416;5.442;2023-08-31T10:03:15;100980.78;;;20.88;100.00
73516;BME280;61763;51.416;5.442;2023-08-31T10:05:43;100991.00;;;20.15;100.00
73516;BME280;61763;51.416;5.442;2023-08-31T10:08:09;100986.59;;;20.64;100.00
73516;BME280;61763;51.416;5.442;2023-08-31T10:10:35;100989.31;;;21.05;100.00
73516;BME280;61763;51.416;5.442;2023-08-31T10:13:04;100983.28;;;21.30;100.00
73516;BME280;61763;51.416;5.442;2023-08-31T10:15:34;100989.03;;;21.27;100.00
73516;BME280;61763;51.416;5.442;2023-08-31T10:18:00;100991.66;;;21.19;100.00
73516;BME280;61763;51.416;5.442;2023-08-31T10:20:29;100980.19;;;20.85;100.00
73516;BME280;61763;51.416;5.442;2023-08-31T10:28:22;100977.88;;;20.39;100.00
73516;BME280;61763;51.416;5.442;2023-08-31T10:31:01;100980.09;;;20.24;100.00
73516;BME280;61763;51.416;5.442;2023-08-31T10:33:31;100975.69;;;20.74;100.00
73516;BME280;61763;51.416;5.442;2023-08-31T10:35:57;100972.53;;;20.38;100.00
73516;BME280;61763;51.416;5.442;2023-08-31T10:38:32;100976.13;;;20.38;100.00
73516;BME280;61763;51.416;5.442;2023-08-31T10:43:58;100972.97;;;20.12;100.00
73516;BME280;61763;51.416;5.442;2023-08-31T10:46:37;100968.91;;;20.06;100.00
73516;BME280;61763;51.416;5.442;2023-08-31T10:51:37;100972.31;;;20.29;100.00
73516;BME280;61763;51.416;5.442;2023-08-31T10:54:11;100966.16;;;20.68;100.00
73516;BME280;61763;51.416;5.442;2023-08-31T10:59:24;100958.34;;;20.33;100.00
73516;BME280;61763;51.416;5.442;2023-08-31T11:04:25;100957.84;;;21.18;100.00
73516;BME280;61763;51.416;5.442;2023-08-31T11:07:13;100950.94;;;21.44;100.00
73516;BME280;61763;51.416;5.442;2023-08-31T11:09:39;100961.31;;;21.69;100.00
73516;BME280;61763;51.416;5.442;2023-08-31T11:12:05;100953.81;;;21.52;100.00
73516;BME280;61763;51.416;5.442;2023-08-31T11:14:31;100950.25;;;22.09;100.00
73516;BME280;61763;51.416;5.442;2023-08-31T11:16:56;100951.66;;;22.13;100.00
73516;BME280;61763;51.416;5.442;2023-08-31T11:19:22;100949.34;;;22.18;100.00
73516;BME280;61763;51.416;5.442;2023-08-31T11:21:48;100946.16;;;22.13;100.00
73516;BME280;61763;51.416;5.442;2023-08-31T11:24:14;100956.38;;;21.83;100.00
73516;BME280;61763;51.416;5.442;2023-08-31T11:26:41;100944.47;;;22.02;100.00
73516;BME280;61763;51.416;5.442;2023-08-31T11:29:07;100949.97;;;22.02;100.00
73516;BME280;61763;51.416;5.442;2023-08-31T11:31:33;100947.75;;;22.15;100.00
73516;BME280;61763;51.416;5.442;2023-08-31T11:34:04;100942.63;;;21.83;94.99
73516;BME280;61763;51.416;5.442;2023-08-31T11:36:31;100946.88;;;21.67;100.00
73516;BME280;61763;51.416;5.442;2023-08-31T11:38:56;100944.13;;;22.52;100.00
73516;BME280;61763;51.416;5.442;2023-08-31T11:41:23;100937.50;;;22.08;93.90
73516;BME280;61763;51.416;5.442;2023-08-31T11:43:48;100949.72;;;21.95;100.00
73516;BME280;61763;51.416;5.442;2023-08-31T11:46:15;100935.91;;;22.15;97.42
73516;BME280;61763;51.416;5.442;2023-08-31T11:48:41;100940.91;;;22.29;98.87
73516;BME280;61763;51.416;5.442;2023-08-31T11:51:07;100931.63;;;21.93;97.74
73516;BME280;61763;51.416;5.442;2023-08-31T11:53:33;100929.06;;;22.56;100.00
73516;BME280;61763;51.416;5.442;2023-08-31T11:56:01;100940.88;;;22.39;88.68
73516;BME280;61763;51.416;5.442;2023-08-31T11:58:27;100933.91;;;22.90;88.41
73516;BME280;61763;51.416;5.442;2023-08-31T12:00:59;100938.56;;;22.90;91.44
73516;BME280;61763;51.416;5.442;2023-08-31T12:03:26;100934.44;;;22.76;94.85
73516;BME280;61763;51.416;5.442;2023-08-31T12:05:52;100934.97;;;23.25;96.79
73516;BME280;61763;51.416;5.442;2023-08-31T12:08:27;100936.56;;;22.27;88.39
73516;BME280;61763;51.416;5.442;2023-08-31T12:10:53;100930.06;;;22.55;92.27
73516;BME280;61763;51.416;5.442;2023-08-31T12:13:18;100926.84;;;22.88;92.28
73516;BME280;61763;51.416;5.442;2023-08-31T12:15:44;100925.00;;;22.61;89.37
73516;BME280;61763;51.416;5.442;2023-08-31T12:18:12;100928.28;;;23.46;86.20
73516;BME280;61763;51.416;5.442;2023-08-31T12:20:51;100925.06;;;23.77;83.43
73516;BME280;61763;51.416;5.442;2023-08-31T12:23:17;100933.25;;;23.42;79.62
73516;BME280;61763;51.416;5.442;2023-08-31T12:28:12;100940.06;;;23.02;81.08
73516;BME280;61763;51.416;5.442;2023-08-31T12:30:41;100937.75;;;22.80;83.19
73516;BME280;61763;51.416;5.442;2023-08-31T12:33:07;100943.16;;;22.44;87.41
73516;BME280;61763;51.416;5.442;2023-08-31T12:35:32;100942.38;;;22.23;84.13
73516;BME280;61763;51.416;5.442;2023-08-31T12:37:57;100949.75;;;21.76;89.14
73516;BME280;61763;51.416;5.442;2023-08-31T12:40:23;100944.41;;;21.45;93.69
73516;BME280;61763;51.416;5.442;2023-08-31T12:42:48;100946.41;;;21.04;92.79
73516;BME280;61763;51.416;5.442;2023-08-31T12:45:13;100941.97;;;21.12;100.00
73516;BME280;61763;51.416;5.442;2023-08-31T12:47:39;100946.00;;;21.18;100.00
73516;BME280;61763;51.416;5.442;2023-08-31T12:50:04;100946.28;;;21.05;100.00
73516;BME280;61763;51.416;5.442;2023-08-31T12:52:30;100942.81;;;21.03;100.00
73516;BME280;61763;51.416;5.442;2023-08-31T12:54:55;100947.69;;;20.80;100.00
73516;BME280;61763;51.416;5.442;2023-08-31T12:57:21;100945.59;;;20.53;100.00
73516;BME280;61763;51.416;5.442;2023-08-31T12:59:46;100955.56;;;20.23;100.00
73516;BME280;61763;51.416;5.442;2023-08-31T13:02:12;100966.16;;;20.06;100.00
73516;BME280;61763;51.416;5.442;2023-08-31T13:04:37;100973.31;;;19.55;100.00
73516;BME280;61763;51.416;5.442;2023-08-31T13:07:03;100979.31;;;19.17;100.00
73516;BME280;61763;51.416;5.442;2023-08-31T13:09:30;100978.91;;;18.66;100.00
73516;BME280;61763;51.416;5.442;2023-08-31T13:11:55;100988.00;;;18.21;100.00